Latest Weather Observations for Fitzroy Crossing

IDW60801

Issued at 5:14 pm WST Sunday 24 January 2021 (issued every 10 minutes, with the page automatically refreshed every 10 minutes)

About weather observations | Map of weather stations | Latest weather observations for WA | Other Formats
Station Details ID: 003093 Name: FITZROY CROSSING AERO Lat: -18.18 Lon: 125.56 Height: 114.5 m
Data from the previous 72 hours. | See also: Recent months at Fitzroy Crossing
Date/Time
WST
Temp
°C
App
Temp
°C
Dew
Point
°C
Rel
Hum
%
Delta-T
°C
Wind Press
QNH
hPa
Press
MSL
hPa
Rain since
9am
mm
Dir  Spd
km/h
Gust
km/h
Spd
kts
Gust
kts
24/05:00pm 35.1 36.7 22.1 47 9.0 W 17 24 9 13 1001.4 1000.5 0.0
24/04:30pm 36.0 37.4 22.5 45 9.4 W 19 30 10 16 1001.3 1000.4 0.0
24/04:00pm 36.1 37.2 23.0 46 9.2 NW 22 28 12 15 1001.3 1000.4 0.0
24/03:30pm 36.5 37.6 21.9 42 10.0 WNW 19 30 10 16 1001.6 1000.7 0.0
24/03:00pm 36.4 37.8 22.5 44 9.7 WNW 19 26 10 14 1001.8 1000.9 0.0
24/02:30pm 36.0 36.7 22.2 45 9.5 WNW 22 32 12 17 1002.0 1001.1 0.0
24/02:00pm 36.1 37.4 22.3 45 9.6 WNW 19 28 10 15 1002.5 1001.6 0.0
24/01:30pm 36.3 37.6 21.7 42 10.0 W 17 30 9 16 1003.0 1002.1 0.0
24/01:00pm 35.7 36.6 20.8 42 10.1 W 17 28 9 15 1003.6 1002.7 0.0
24/12:30pm 35.5 36.1 22.1 45 9.2 WNW 22 32 12 17 1004.4 1003.5 0.0
24/12:00pm 35.0 36.3 22.3 47 8.8 NW 19 28 10 15 1004.9 1003.9 0.0
24/11:30am 34.3 35.3 21.7 47 8.6 NW 19 28 10 15 1005.3 1004.3 0.0
24/11:00am 33.3 34.4 22.4 52 7.5 WNW 20 30 11 16 1005.8 1004.8 0.0
24/10:30am 32.6 33.9 23.3 58 6.5 NW 22 32 12 17 1006.5 1005.6 0.0
24/10:00am 32.4 33.9 23.1 58 6.5 WNW 20 32 11 17 1006.7 1005.8 0.0
24/09:30am 32.1 33.1 22.8 58 6.4 WNW 22 30 12 16 1007.0 1006.1 0.0
24/09:00am 30.7 32.2 23.1 64 5.3 WNW 20 24 11 13 1007.1 1006.2 2.2
24/08:30am 31.1 33.1 24.5 68 4.6 WNW 22 32 12 17 1007.2 1006.3 2.2
24/08:00am 29.1 32.6 24.9 78 3.0 W 15 20 8 11 1007.2 1006.3 2.2
24/07:30am 28.3 32.2 24.9 82 2.4 WNW 13 17 7 9 1007.1 1006.2 2.2
24/07:00am 26.9 33.2 24.7 88 1.5 CALM 0 2 0 1 1006.9 1006.0 2.2
24/06:30am 26.4 32.7 24.8 91 1.1 CALM 0 0 0 0 1006.8 1005.9 2.2
24/06:00am 26.1 32.2 24.5 91 1.1 CALM 0 0 0 0 1006.3 1005.3 2.2
24/05:30am 25.5 31.4 24.1 92 1.0 CALM 0 0 0 0 1005.9 1004.9 2.2
24/05:00am 25.6 31.4 24.0 91 1.1 CALM 0 0 0 0 1005.6 1004.6 2.2
24/04:30am 25.4 31.0 23.6 90 1.2 CALM 0 0 0 0 1005.3 1004.3 2.2
24/04:00am 25.6 30.0 23.8 90 1.2 N 7 9 4 5 1004.9 1003.9 2.2
24/03:30am 25.7 30.2 23.9 90 1.2 N 7 9 4 5 1004.4 1003.5 2.2
24/03:00am 25.7 30.4 23.9 90 1.2 N 6 7 3 4 1004.4 1003.5 2.2
24/02:30am 25.6 29.9 23.7 89 1.3 N 7 7 4 4 1004.6 1003.7 2.2
24/02:00am 25.8 29.8 23.8 89 1.4 N 9 9 5 5 1004.8 1003.8 2.2
24/01:30am 25.9 29.9 23.8 88 1.4 NNW 9 11 5 6 1004.9 1003.9 2.2
24/01:00am 25.9 29.9 23.8 88 1.4 NW 9 9 5 5 1004.9 1003.9 2.2
24/12:30am 26.1 29.7 23.8 87 1.6 NNW 11 13 6 7 1005.2 1004.2 2.2
24/12:00am 26.4 29.8 24.1 87 1.6 NW 13 15 7 8 1005.7 1004.7 2.2
 
Date/Time
WST
Temp
°C
App
Temp
°C
Dew
Point
°C
Rel
Hum
%
Delta-T
°C
Wind Press
QNH
hPa
Press
MSL
hPa
Rain since
9am
mm
Dir  Spd
km/h
Gust
km/h
Spd
kts
Gust
kts
23/11:30pm 26.4 30.3 24.2 88 1.5 NW 11 15 6 8 1006.1 1005.1 2.2
23/11:00pm 26.6 29.7 24.1 86 1.7 NW 15 17 8 9 1006.3 1005.3 2.2
23/10:30pm 26.7 30.1 24.0 85 1.9 NW 13 20 7 11 1006.6 1005.7 2.2
23/10:00pm 27.1 29.2 23.8 82 2.3 NNW 19 22 10 12 1006.7 1005.8 2.2
23/09:30pm 27.2 30.1 23.9 82 2.3 NNW 15 20 8 11 1006.6 1005.7 2.2
23/09:00pm 27.2 30.9 23.9 82 2.3 NNW 11 15 6 8 1006.6 1005.7 2.2
23/08:30pm 27.4 30.3 23.8 81 2.5 N 15 20 8 11 1006.2 1005.2 2.2
23/08:00pm 27.2 30.1 23.9 82 2.3 N 15 20 8 11 1005.7 1004.7 2.2
23/07:30pm 26.9 30.2 23.8 83 2.1 N 13 15 7 8 1005.2 1004.2 2.2
23/07:00pm 27.0 29.7 23.5 81 2.4 N 15 19 8 10 1005.1 1004.1 2.2
23/06:30pm 27.1 30.9 24.0 83 2.1 N 11 15 6 8 1004.9 1003.9 2.2
23/06:00pm 27.0 30.6 23.7 82 2.3 N 11 13 6 7 1004.5 1003.6 2.2
23/05:30pm 27.0 31.2 23.5 81 2.4 N 7 9 4 5 1003.8 1002.9 2.2
23/05:00pm 26.9 31.0 24.0 84 2.0 NW 9 15 5 8 1003.9 1003.0 2.2
23/04:30pm 27.2 27.2 23.0 78 2.9 WSW 28 39 15 21 1003.9 1003.0 1.8
23/04:00pm 31.1 32.6 23.0 62 5.6 NW 20 30 11 16 1003.1 1002.2 1.8
23/03:30pm 31.7 32.6 22.7 59 6.2 NW 22 32 12 17 1003.1 1002.2 1.8
23/03:00pm 31.7 32.1 22.4 58 6.4 NNW 24 30 13 16 1002.9 1002.0 1.8
23/02:30pm 32.0 33.3 22.4 57 6.6 N 19 26 10 14 1002.5 1001.6 1.8
23/02:00pm 31.8 34.5 24.1 63 5.4 N 17 22 9 12 1003.1 1002.2 1.8
23/01:30pm 30.1 32.3 23.3 67 4.7 N 17 20 9 11 1003.6 1002.7 1.8
23/01:00pm 29.0 32.9 24.8 78 3.0 N 13 17 7 9 1003.7 1002.8 1.8
23/12:30pm 27.6 31.7 25.2 87 1.7 NNW 13 19 7 10 1003.9 1003.0 1.8
23/12:00pm 31.0 32.0 22.9 62 5.6 N 22 30 12 16 1004.6 1003.7 0.2
23/11:30am 31.9 33.1 23.2 60 6.0 NW 22 33 12 18 1005.0 1004.0 0.2
23/11:00am 29.4 30.3 22.6 67 4.7 NNW 22 30 12 16 1005.5 1004.5 0.0
23/10:30am 29.9 31.0 23.6 69 4.4 NW 24 33 13 18 1006.0 1005.0 0.0
23/10:00am 30.4 31.2 23.1 65 5.0 WNW 24 33 13 18 1006.1 1005.1 0.0
23/09:30am 27.9 29.9 23.9 79 2.8 NW 20 26 11 14 1006.5 1005.6 0.0
23/09:00am 26.5 28.1 23.8 85 1.9 NW 22 26 12 14 1006.4 1005.4 2.4
23/08:30am 26.6 25.8 22.4 78 2.8 NNW 30 43 16 23 1006.3 1005.3 2.4
23/08:00am 29.4 31.0 23.8 72 3.9 N 22 32 12 17 1005.7 1004.7 2.2
23/07:30am 28.3 31.0 24.1 78 2.9 N 17 24 9 13 1005.6 1004.6 2.2
23/07:00am 27.1 30.1 24.0 83 2.1 NNE 15 24 8 13 1005.8 1004.8 2.2
23/06:30am 26.3 30.1 24.0 87 1.6 NNE 11 15 6 8 1005.7 1004.7 2.2
23/06:00am 25.5 29.2 23.9 91 1.1 N 11 13 6 7 1005.3 1004.3 2.2
23/05:30am 25.5 27.5 23.9 91 1.1 N 20 28 11 15 1005.0 1004.0 2.2
23/05:00am 25.9 28.7 23.6 87 1.6 NNW 15 17 8 9 1004.5 1003.6 1.2
23/04:30am 25.8 28.0 23.3 86 1.7 NW 17 20 9 11 1004.2 1003.3 1.2
23/04:00am 27.1 28.3 22.5 76 3.1 NNW 20 28 11 15 1003.9 1003.0 1.2
23/03:30am 27.0 30.0 22.6 77 3.0 NNE 11 15 6 8 1003.5 1002.6 1.2
23/03:00am 27.2 30.2 22.6 76 3.1 NNE 11 17 6 9 1003.5 1002.6 1.2
23/02:30am 27.0 29.5 22.4 76 3.1 NNE 13 17 7 9 1003.2 1002.3 1.2
23/02:00am 26.9 29.8 22.5 77 3.0 NNE 11 15 6 8 1003.3 1002.4 1.2
23/01:30am 27.1 30.3 22.3 75 3.2 NNE 9 13 5 7 1003.4 1002.5 1.2
23/01:00am 26.9 30.2 22.5 77 3.0 N 9 11 5 6 1003.9 1003.0 1.2
23/12:30am 27.0 29.9 22.4 76 3.1 NNE 11 15 6 8 1004.2 1003.3 1.2
23/12:00am 27.5 29.8 22.7 75 3.3 NNE 15 22 8 12 1004.4 1003.5 1.2
 
Date/Time
WST
Temp
°C
App
Temp
°C
Dew
Point
°C
Rel
Hum
%
Delta-T
°C
Wind Press
QNH
hPa
Press
MSL
hPa
Rain since
9am
mm
Dir  Spd
km/h
Gust
km/h
Spd
kts
Gust
kts
22/11:30pm 27.5 30.5 22.7 75 3.3 NNE 11 17 6 9 1004.6 1003.7 1.2
22/11:00pm 27.9 30.0 22.4 72 3.7 NNE 15 24 8 13 1005.1 1004.1 1.2
22/10:30pm 28.0 30.5 22.5 72 3.7 NNE 13 17 7 9 1005.5 1004.5 1.2
22/10:00pm 27.8 31.1 23.2 76 3.2 NNE 11 15 6 8 1005.6 1004.6 1.2
22/09:30pm 27.9 30.5 23.3 76 3.2 N 15 19 8 10 1005.6 1004.6 1.2
22/09:00pm 27.5 31.3 24.1 82 2.4 NE 11 15 6 8 1005.6 1004.6 1.2
22/08:30pm 26.8 31.2 24.5 87 1.6 ENE 9 13 5 7 1005.3 1004.3 1.2
22/08:00pm 26.9 32.9 24.2 85 1.9 CALM 0 6 0 3 1005.3 1004.3 1.2
22/07:30pm 26.8 30.6 24.1 85 1.9 NE 11 13 6 7 1005.0 1004.0 1.2
22/07:00pm 27.0 31.0 23.7 82 2.3 NE 9 13 5 7 1004.6 1003.7 1.2
22/06:30pm 27.3 30.5 23.7 81 2.5 NE 13 19 7 10 1004.2 1003.3 1.2
22/06:00pm 27.3 30.4 23.5 80 2.6 ENE 13 17 7 9 1004.2 1003.3 1.2
22/05:30pm 27.2 29.9 23.4 80 2.6 E 15 30 8 16 1004.2 1003.3 1.2
22/05:00pm 27.2 32.9 23.7 81 2.4 CALM 0 0 0 0 1003.4 1002.5 1.2
22/04:30pm 27.2 31.4 23.4 80 2.6 NW 7 11 4 6 1003.4 1002.5 1.2
22/04:00pm 27.3 30.8 22.9 77 3.0 NNE 9 13 5 7 1002.8 1001.9 1.2
22/03:30pm 27.4 29.2 23.6 80 2.6 N 20 30 11 16 1003.1 1002.2 1.2
22/03:00pm 28.1 30.8 25.1 84 2.1 WNW 20 32 11 17 1002.9 1002.0 1.2
22/02:30pm 28.7 29.3 23.4 73 3.7 NNW 26 56 14 30 1003.0 1002.1 0.4
22/02:29pm 31.0 32.1 23.6 64 5.1 NNW 24 50 13 27 1003.2 1002.3 0.2
22/02:00pm 34.8 35.8 21.8 46 8.9 NNE 19 28 10 15 1003.1 1002.2 0.2
22/01:30pm 35.5 37.1 22.8 47 8.8 NNE 19 32 10 17 1003.0 1002.1 0.2
22/01:00pm 34.6 35.3 23.0 51 8.1 N 24 33 13 18 1003.4 1002.5 0.2
22/12:30pm 32.5 32.9 21.7 53 7.3 NE 22 33 12 18 1004.0 1003.1 0.2
22/12:00pm 33.2 33.5 22.3 52 7.5 NE 24 33 13 18 1004.3 1003.4 0.2
22/11:30am 32.9 33.4 22.7 55 7.0 NE 24 32 13 17 1005.6 1004.6 0.2
22/11:00am 31.9 33.5 23.2 60 6.0 E 20 28 11 15 1007.0 1006.1 0.2
22/10:30am 31.3 34.0 24.2 66 5.0 E 17 26 9 14 1007.7 1006.8 0.0
22/10:00am 29.6 31.7 23.1 68 4.5 E 17 26 9 14 1008.2 1007.3 0.0
22/09:30am 28.8 30.3 23.0 71 4.0 E 20 30 11 16 1008.3 1007.4 0.0
22/09:00am 28.1 29.5 22.8 73 3.6 E 20 26 11 14 1008.7 1007.8 2.4
22/08:30am 27.4 28.3 22.6 75 3.3 ENE 22 32 12 17 1008.9 1008.0 2.4
22/08:00am 27.1 28.5 22.9 78 2.9 E 20 28 11 15 1008.7 1007.8 2.4
22/07:30am 26.2 28.4 23.3 84 2.0 E 17 22 9 12 1008.2 1007.3 2.4
22/07:00am 25.2 27.2 22.9 87 1.6 E 17 24 9 13 1008.3 1007.4 2.4
22/06:30am 24.9 27.1 22.6 87 1.6 E 15 24 8 13 1008.0 1007.1 2.4
22/06:00am 24.9 27.0 23.1 90 1.2 E 17 22 9 12 1007.9 1007.0 2.4
22/05:30am 24.7 26.9 23.3 92 1.0 E 17 22 9 12 1007.2 1006.3 2.4
22/05:00am 24.6 27.3 23.4 93 0.8 E 15 20 8 11 1006.8 1005.9 2.4
22/04:30am 24.5 27.6 23.5 94 0.7 E 13 20 7 11 1006.8 1005.9 2.4
22/04:00am 24.5 28.2 23.3 93 0.8 ESE 9 13 5 7 1007.1 1006.2 2.4
22/03:30am 24.5 28.1 23.1 92 1.0 ESE 9 13 5 7 1007.0 1006.1 2.4
22/03:00am 24.6 28.2 23.0 91 1.1 ESE 9 13 5 7 1006.9 1006.0 2.4
22/02:30am 24.8 29.7 23.0 90 1.2 SE 2 7 1 4 1007.0 1006.1 2.4
22/02:00am 24.9 28.5 23.1 90 1.2 ESE 9 11 5 6 1007.0 1006.1 2.4
22/01:30am 25.0 28.7 23.2 90 1.2 SE 9 13 5 7 1007.4 1006.5 2.4
22/01:00am 25.1 29.2 23.3 90 1.2 SE 7 9 4 5 1007.6 1006.7 2.4
22/12:30am 25.1 28.9 23.5 91 1.1 SE 9 15 5 8 1007.4 1006.5 2.4
22/12:00am 25.1 29.4 23.7 92 1.0 SE 7 11 4 6 1007.7 1006.8 2.4
 
Date/Time
WST
Temp
°C
App
Temp
°C
Dew
Point
°C
Rel
Hum
%
Delta-T
°C
Wind Press
QNH
hPa
Press
MSL
hPa
Rain since
9am
mm
Dir  Spd
km/h
Gust
km/h
Spd
kts
Gust
kts
21/11:30pm 25.1 29.1 23.7 92 1.0 SE 9 11 5 6 1007.9 1007.0 2.4
21/11:00pm 25.1 28.9 23.5 91 1.1 SE 9 13 5 7 1008.2 1007.3 2.4
21/10:30pm 25.5 29.7 24.1 92 1.0 SSE 9 11 5 6 1008.4 1007.5 2.4
21/10:00pm 25.5 30.0 23.7 90 1.2 S 6 9 3 5 1008.8 1007.9 2.4
21/09:30pm 25.5 29.8 23.7 90 1.2 SSE 7 9 4 5 1008.6 1007.7 2.2
21/09:00pm 25.5 29.8 23.7 90 1.2 E 7 11 4 6 1008.5 1007.6 2.2
21/08:30pm 25.6 30.0 23.8 90 1.2 SSE 7 11 4 6 1007.8 1006.9 2.2
21/08:00pm 25.7 29.9 24.1 91 1.1 ESE 9 15 5 8 1007.9 1007.0 1.8
21/07:30pm 25.7 29.6 24.3 92 1.0 ENE 11 13 6 7 1008.1 1007.2 1.8
21/07:00pm 25.6 29.4 24.0 91 1.1 SE 11 15 6 8 1006.1 1005.1 1.6
21/06:30pm 25.6 29.2 23.7 89 1.3 E 11 15 6 8 1006.0 1005.0 1.6
21/06:00pm 25.9 29.0 24.1 90 1.2 NNW 15 20 8 11 1006.7 1005.8 1.4
21/05:30pm 27.6 29.9 23.4 78 2.9 W 17 28 9 15 1006.3 1005.3 0.4

Other formats

Comma delimited format used in spreadsheet applications
http://www.bom.gov.au/fwo/IDW60801/IDW60801.94206.axf

JavaScript Object Notation format (JSON) in row-major order
http://www.bom.gov.au/fwo/IDW60801/IDW60801.94206.json

Data quality

Most of these data are generated automatically and are frequently updated. Quality checks on data are not normally performed. It is possible for incorrect values to appear. Refer to information at About Latest Weather Observations and please check the disclaimer before using these data.